Time;durP1;ratioP1;P1;durP2;ratioP2;P2;SDS_P1;SDS_P2;PMS_P1;PMS_P2;Temp;Humidity;BMP_temperature;BMP_pressure;BME280_temperature;BME280_humidity;BME280_pressure;Samples;Min_cycle;Max_cycle;Signal;HPM_P1;HPM_P2
2022/09/20 00:01:09;;;;;;;0.20;0.10;;;12.80;81.40;;;;;;5034803;28;20037;-72
2022/09/20 00:03:42;;;;;;;1.67;0.40;;;12.60;81.50;;;;;;5032970;28;20029;-72
2022/09/20 00:06:09;;;;;;;0.08;0.08;;;12.60;81.80;;;;;;5033258;28;20087;-72
2022/09/20 00:08:36;;;;;;;0.50;0.20;;;12.50;82.20;;;;;;5035428;28;20152;-72
2022/09/20 00:11:05;;;;;;;0.32;0.20;;;12.40;81.70;;;;;;5042837;28;20078;-72
2022/09/20 00:13:32;;;;;;;0.17;0.10;;;12.50;81.40;;;;;;5037459;28;20072;-72
2022/09/20 00:15:58;;;;;;;5.00;0.77;;;12.40;82.60;;;;;;5028849;28;20032;-73
2022/09/20 00:18:25;;;;;;;0.68;0.20;;;12.50;82.10;;;;;;5030391;28;20475;-72
2022/09/20 00:20:51;;;;;;;2.58;0.50;;;12.60;82.40;;;;;;5030765;28;20071;-73
2022/09/20 00:23:17;;;;;;;1.48;0.20;;;12.50;81.70;;;;;;5027922;28;20029;-72
2022/09/20 00:25:44;;;;;;;0.93;0.30;;;12.60;81.60;;;;;;5029652;28;20041;-72
2022/09/20 00:28:10;;;;;;;1.85;0.52;;;13.10;79.70;;;;;;5027477;28;20057;-72
2022/09/20 00:30:36;;;;;;;0.57;0.28;;;12.80;81.40;;;;;;5028387;28;20387;-72
2022/09/20 00:33:02;;;;;;;0.63;0.35;;;12.50;81.40;;;;;;5029157;28;20025;-73
2022/09/20 00:35:29;;;;;;;0.55;0.20;;;12.80;80.40;;;;;;5030560;28;20036;-72
2022/09/20 00:37:56;;;;;;;0.47;0.20;;;12.90;80.70;;;;;;5039155;28;20017;-72
2022/09/20 00:40:25;;;;;;;0.90;0.30;;;12.80;81.20;;;;;;5029816;28;20130;-72
2022/09/20 00:42:51;;;;;;;1.50;0.30;;;12.80;81.00;;;;;;5028882;28;20025;-72
2022/09/20 00:45:24;;;;;;;0.22;0.20;;;12.50;81.80;;;;;;5030638;28;20044;-72
2022/09/20 00:48:10;;;;;;;1.33;0.20;;;12.40;82.10;;;;;;5029562;28;20025;-72
2022/09/20 00:50:42;;;;;;;3.53;0.30;;;12.30;82.40;;;;;;5030445;28;20479;-72
2022/09/20 00:53:23;;;;;;;1.38;0.50;;;12.60;81.30;;;;;;5028529;28;20029;-72
2022/09/20 00:56:02;;;;;;;1.05;0.20;;;12.70;81.30;;;;;;5028884;28;20473;-72
2022/09/20 00:58:32;;;;;;;0.13;0.00;;;12.60;80.80;;;;;;5028988;28;20063;-73
2022/09/20 01:00:59;;;;;;;0.82;0.30;;;12.80;80.50;;;;;;5034032;28;20163;-72
2022/09/20 01:03:30;;;;;;;0.40;0.20;;;12.70;81.10;;;;;;5034060;28;20029;-73
2022/09/20 01:05:57;;;;;;;2.15;0.25;;;12.70;80.10;;;;;;5030312;28;20082;-72
2022/09/20 01:08:24;;;;;;;3.30;0.30;;;12.80;81.30;;;;;;5035962;28;20033;-73
2022/09/20 01:10:50;;;;;;;1.17;0.30;;;12.60;80.80;;;;;;5036436;28;20486;-74
2022/09/20 01:13:16;;;;;;;1.17;0.40;;;12.60;81.00;;;;;;5031488;28;20450;-73
2022/09/20 01:15:45;;;;;;;0.20;0.10;;;12.70;80.80;;;;;;5027274;28;20036;-72
2022/09/20 01:18:11;;;;;;;0.68;0.20;;;12.60;80.80;;;;;;5027934;28;20033;-72
2022/09/20 01:20:40;;;;;;;0.20;0.13;;;12.80;80.00;;;;;;5037991;28;20049;-73
2022/09/20 01:23:41;;;;;;;0.65;0.35;;;12.70;80.50;;;;;;5038239;28;20111;-72
2022/09/20 01:26:46;;;;;;;0.85;0.30;;;12.80;80.10;;;;;;5039539;28;20041;-72
2022/09/20 01:29:26;;;;;;;0.35;0.03;;;12.80;80.50;;;;;;5026352;28;20041;-72
2022/09/20 01:31:55;;;;;;;0.70;0.28;;;12.80;80.30;;;;;;5032466;28;20063;-72
2022/09/20 01:34:31;;;;;;;2.55;0.30;;;12.80;80.20;;;;;;5027428;28;20087;-73
2022/09/20 01:37:18;;;;;;;1.15;0.25;;;12.70;80.60;;;;;;5027939;28;20484;-72
2022/09/20 01:40:02;;;;;;;1.02;0.28;;;12.70;80.20;;;;;;5033457;28;20475;-72
2022/09/20 01:42:35;;;;;;;0.43;0.08;;;12.70;80.20;;;;;;5031544;28;20037;-72
2022/09/20 01:45:24;;;;;;;0.45;0.20;;;12.70;80.40;;;;;;5026807;28;20033;-72
2022/09/20 01:47:50;;;;;;;1.10;0.30;;;12.70;80.30;;;;;;5033981;28;20033;-72
2022/09/20 01:50:39;;;;;;;0.70;0.30;;;12.70;80.10;;;;;;5029626;28;20391;-72
2022/09/20 01:53:42;;;;;;;0.30;0.20;;;12.50;80.70;;;;;;5032191;28;20037;-72
2022/09/20 01:56:30;;;;;;;0.25;0.20;;;12.40;81.40;;;;;;5027172;28;20037;-72
2022/09/20 01:59:24;;;;;;;0.93;0.30;;;12.50;80.30;;;;;;5026530;28;20480;-73
2022/09/20 02:01:52;;;;;;;0.70;0.13;;;12.60;80.10;;;;;;5039708;28;20041;-72
2022/09/20 02:04:58;;;;;;;0.30;0.10;;;12.60;80.40;;;;;;5029584;28;20055;-72
2022/09/20 02:08:00;;;;;;;0.50;0.20;;;12.50;80.50;;;;;;5026281;28;20550;-72
2022/09/20 02:10:50;;;;;;;0.63;0.30;;;12.30;81.60;;;;;;5027114;28;20052;-72
2022/09/20 02:13:31;;;;;;;0.55;0.25;;;12.40;81.40;;;;;;5028822;28;20073;-72
2022/09/20 02:16:15;;;;;;;0.20;0.17;;;12.20;81.10;;;;;;5028149;28;20033;-72
2022/09/20 02:19:07;;;;;;;0.75;0.20;;;12.20;81.70;;;;;;5029529;28;20052;-73
2022/09/20 02:22:10;;;;;;;0.55;0.17;;;12.10;81.50;;;;;;5026674;28;20369;-72
2022/09/20 02:25:06;;;;;;;2.35;0.32;;;12.10;82.60;;;;;;5027140;28;20479;-72
2022/09/20 02:28:00;;;;;;;0.52;0.20;;;11.90;83.00;;;;;;5026483;28;20436;-72
2022/09/20 02:30:32;;;;;;;1.05;0.32;;;11.80;83.20;;;;;;5041693;28;20111;-72
2022/09/20 02:33:34;;;;;;;0.43;0.30;;;11.70;83.40;;;;;;5044529;28;20025;-72
2022/09/20 02:36:16;;;;;;;1.77;0.25;;;11.80;83.00;;;;;;5032330;28;20021;-72
2022/09/20 02:39:11;;;;;;;0.88;0.25;;;11.70;83.90;;;;;;5031836;28;20421;-73
2022/09/20 02:41:54;;;;;;;0.05;0.05;;;11.50;83.60;;;;;;5045330;28;20044;-72
2022/09/20 02:44:37;;;;;;;0.00;0.00;;;11.70;83.10;;;;;;5032593;28;20032;-72
2022/09/20 02:47:24;;;;;;;0.77;0.40;;;11.90;81.80;;;;;;5031546;28;20050;-73
2022/09/20 02:49:59;;;;;;;1.45;0.30;;;11.90;82.20;;;;;;5032022;28;20033;-72
2022/09/20 02:52:48;;;;;;;2.35;0.40;;;11.90;82.40;;;;;;5035308;28;20029;-72
2022/09/20 02:55:31;;;;;;;1.15;0.43;;;12.10;81.10;;;;;;5032826;28;20025;-72
2022/09/20 02:58:18;;;;;;;1.30;0.40;;;12.00;82.50;;;;;;5033238;28;20602;-73
2022/09/20 03:00:52;;;;;;;0.82;0.32;;;11.80;82.20;;;;;;5031205;28;20573;-72
2022/09/20 03:03:43;;;;;;;1.77;0.15;;;12.00;81.40;;;;;;5028513;28;20087;-72
2022/09/20 03:06:17;;;;;;;0.20;0.10;;;12.00;81.50;;;;;;5028872;28;20042;-72
2022/09/20 03:09:21;;;;;;;;;;;11.70;82.50;;;;;;5028646;28;20112;-72
2022/09/20 03:12:06;;;;;;;0.68;0.30;;;11.60;83.00;;;;;;4980668;28;19918;-73
2022/09/20 03:14:50;;;;;;;0.35;0.10;;;11.50;82.90;;;;;;4981461;28;20460;-73
2022/09/20 03:17:35;;;;;;;0.73;0.20;;;11.60;83.40;;;;;;5016693;28;20059;-73
2022/09/20 03:20:07;;;;;;;2.00;0.28;;;11.50;83.30;;;;;;5030359;28;20029;-73
2022/09/20 03:23:04;;;;;;;1.15;0.32;;;11.50;82.90;;;;;;5037253;28;20029;-72
2022/09/20 03:25:50;;;;;;;0.47;0.20;;;11.60;82.80;;;;;;5030457;28;20041;-72
2022/09/20 03:28:22;;;;;;;0.50;0.22;;;11.60;82.70;;;;;;5027567;28;20029;-72
2022/09/20 03:31:03;;;;;;;1.00;0.20;;;11.70;82.80;;;;;;5026702;28;20025;-72
2022/09/20 03:33:35;;;;;;;2.22;0.22;;;11.70;82.00;;;;;;5033128;28;20039;-72
2022/09/20 03:36:10;;;;;;;1.48;0.40;;;11.70;82.10;;;;;;5025001;28;20026;-72
2022/09/20 03:38:56;;;;;;;0.85;0.17;;;11.60;82.40;;;;;;5024937;28;20041;-73
2022/09/20 03:41:22;;;;;;;1.23;0.20;;;11.80;82.10;;;;;;5029288;28;20036;-73
2022/09/20 03:43:56;;;;;;;0.52;0.20;;;11.60;82.40;;;;;;5029143;28;20025;-73
2022/09/20 03:46:45;;;;;;;0.98;0.38;;;11.60;82.30;;;;;;5026586;28;20037;-73
2022/09/20 03:49:32;;;;;;;0.68;0.22;;;11.40;83.30;;;;;;5026020;28;20151;-73
2022/09/20 03:52:21;;;;;;;0.22;0.10;;;11.40;83.00;;;;;;5024486;28;20423;-73
2022/09/20 03:55:15;;;;;;;0.52;0.20;;;11.60;82.40;;;;;;5025821;28;20436;-73
2022/09/20 03:57:58;;;;;;;0.45;0.20;;;11.50;82.30;;;;;;5026421;28;20026;-72
2022/09/20 04:00:55;;;;;;;0.45;0.10;;;11.40;83.70;;;;;;5021627;28;20391;-72
2022/09/20 04:03:27;;;;;;;0.55;0.20;;;11.40;83.50;;;;;;5021333;28;20072;-73
2022/09/20 04:06:08;;;;;;;0.28;0.10;;;11.30;84.00;;;;;;5029171;28;20705;-73
2022/09/20 04:08:55;;;;;;;0.75;0.50;;;11.30;83.60;;;;;;5021534;28;20373;-73
2022/09/20 04:11:36;;;;;;;0.25;0.20;;;11.30;83.10;;;;;;5026821;28;20070;-73
2022/09/20 04:14:33;;;;;;;0.47;0.20;;;11.00;84.60;;;;;;5024430;28;20526;-72
2022/09/20 04:17:36;;;;;;;1.88;0.20;;;11.00;84.40;;;;;;5023112;28;20112;-72
2022/09/20 04:20:24;;;;;;;1.17;0.13;;;11.10;84.00;;;;;;5022324;28;20026;-73
2022/09/20 04:22:54;;;;;;;0.28;0.15;;;11.10;84.20;;;;;;5026044;28;20032;-72
2022/09/20 04:25:27;;;;;;;0.20;0.17;;;11.10;83.50;;;;;;5033895;28;20035;-73
2022/09/20 04:28:03;;;;;;;0.43;0.20;;;11.00;85.00;;;;;;5022555;28;20124;-73
2022/09/20 04:30:32;;;;;;;0.52;0.20;;;10.80;85.00;;;;;;5020577;28;20491;-73
2022/09/20 04:33:06;;;;;;;4.53;0.57;;;10.60;85.60;;;;;;5025301;28;20064;-72
2022/09/20 04:38:41;;;;;;;0.13;0.10;;;10.50;87.10;;;;;;5022453;28;20463;-72
2022/09/20 04:41:42;;;;;;;0.47;0.17;;;10.10;87.50;;;;;;5031022;28;20029;-73
2022/09/20 04:44:34;;;;;;;0.38;0.13;;;10.10;87.70;;;;;;5033078;28;20073;-73
2022/09/20 04:47:21;;;;;;;0.77;0.20;;;10.00;88.20;;;;;;5020117;28;20044;-73
2022/09/20 04:50:21;;;;;;;1.15;0.30;;;9.90;88.20;;;;;;5025648;28;20037;-73
2022/09/20 04:53:04;;;;;;;0.68;0.25;;;10.00;88.20;;;;;;5027589;28;20116;-72
2022/09/20 04:55:59;;;;;;;1.25;0.30;;;10.00;88.00;;;;;;5032329;28;20486;-73
2022/09/20 04:59:03;;;;;;;0.93;0.40;;;10.00;88.20;;;;;;5026664;28;20090;-73
2022/09/20 05:02:07;;;;;;;1.30;0.43;;;10.00;88.50;;;;;;5020643;28;20044;-72
2022/09/20 05:04:54;;;;;;;0.52;0.20;;;10.10;87.90;;;;;;5021084;28;20067;-72
2022/09/20 05:07:47;;;;;;;0.65;0.22;;;10.00;87.60;;;;;;5022395;28;20623;-72
2022/09/20 05:10:32;;;;;;;1.13;0.30;;;9.90;88.30;;;;;;5025164;28;20032;-73
2022/09/20 05:13:04;;;;;;;1.23;0.20;;;9.70;88.90;;;;;;5023950;28;20056;-72
2022/09/20 05:15:53;;;;;;;1.80;0.10;;;9.40;90.10;;;;;;5017818;28;20029;-73
2022/09/20 05:18:34;;;;;;;2.53;0.40;;;9.30;90.20;;;;;;5031986;28;20060;-73
2022/09/20 05:21:14;;;;;;;0.30;0.25;;;9.70;88.70;;;;;;5028014;28;20040;-73
2022/09/20 05:23:40;;;;;;;0.22;0.08;;;9.90;88.00;;;;;;5021336;28;20090;-74
2022/09/20 05:26:28;;;;;;;1.27;0.63;;;9.80;89.00;;;;;;5021169;28;20045;-72
2022/09/20 05:29:18;;;;;;;2.42;0.32;;;10.00;90.90;;;;;;5019654;28;20434;-73
2022/09/20 05:32:09;;;;;;;0.20;0.10;;;9.90;89.20;;;;;;5020922;28;20037;-73
2022/09/20 05:35:15;;;;;;;1.52;0.20;;;9.70;89.70;;;;;;5023824;28;20029;-73
2022/09/20 05:38:05;;;;;;;0.47;0.25;;;9.70;89.80;;;;;;5033911;28;20455;-73
2022/09/20 05:40:52;;;;;;;1.17;0.35;;;9.50;90.30;;;;;;5027679;28;20081;-73
2022/09/20 05:43:27;;;;;;;0.70;0.30;;;9.60;90.20;;;;;;5022967;28;20029;-73
2022/09/20 05:46:21;;;;;;;2.85;0.40;;;9.30;91.30;;;;;;5020622;28;20422;-74
2022/09/20 05:48:52;;;;;;;0.45;0.20;;;9.20;90.80;;;;;;5024345;28;20104;-74
2022/09/20 05:51:32;;;;;;;0.70;0.20;;;9.20;91.00;;;;;;5022413;28;20035;-73
2022/09/20 05:54:19;;;;;;;0.70;0.20;;;9.20;91.70;;;;;;5023259;28;20025;-74
2022/09/20 05:57:27;;;;;;;0.52;0.10;;;9.00;91.80;;;;;;5021995;28;20060;-73
2022/09/20 06:00:01;;;;;;;0.88;0.25;;;9.10;91.50;;;;;;5022635;28;20095;-73
2022/09/20 06:02:37;;;;;;;1.13;0.43;;;9.20;91.10;;;;;;5028664;28;20029;-73
2022/09/20 06:05:08;;;;;;;0.60;0.30;;;9.30;91.10;;;;;;5021175;28;20501;-73
2022/09/20 06:07:58;;;;;;;1.42;0.20;;;9.50;90.50;;;;;;5027562;28;20051;-74
2022/09/20 06:10:34;;;;;;;0.68;0.20;;;9.60;90.90;;;;;;5024172;28;20119;-73
2022/09/20 06:13:03;;;;;;;0.47;0.20;;;9.30;91.00;;;;;;5025292;28;20037;-74
2022/09/20 06:15:39;;;;;;;0.43;0.10;;;9.30;91.20;;;;;;5023482;28;20124;-72
2022/09/20 06:18:27;;;;;;;0.30;0.20;;;9.30;91.90;;;;;;5020210;28;20395;-73
2022/09/20 06:21:13;;;;;;;0.80;0.22;;;9.30;91.70;;;;;;5023731;28;20120;-74
2022/09/20 06:23:39;;;;;;;0.35;0.30;;;8.90;92.90;;;;;;5027011;28;20033;-73
2022/09/20 06:26:28;;;;;;;1.40;0.20;;;8.80;93.60;;;;;;5024035;28;20442;-73
2022/09/20 06:29:02;;;;;;;0.47;0.17;;;8.80;93.40;;;;;;5021995;28;20126;-73
2022/09/20 06:31:28;;;;;;;3.75;0.40;;;8.90;93.50;;;;;;5019767;28;20095;-73
2022/09/20 06:34:04;;;;;;;1.35;0.30;;;9.20;92.50;;;;;;5024200;28;20447;-73
2022/09/20 06:42:03;;;;;;;0.60;0.28;;;9.60;91.90;;;;;;5022376;28;20104;-72
2022/09/20 06:44:30;;;;;;;4.72;0.30;;;9.70;91.90;;;;;;5019416;28;20069;-73
2022/09/20 06:46:55;;;;;;;0.75;0.20;;;9.80;92.30;;;;;;5019804;28;20129;-73
2022/09/20 06:49:22;;;;;;;0.60;0.30;;;9.90;91.80;;;;;;5021662;28;20107;-73
2022/09/20 06:51:51;;;;;;;0.68;0.35;;;10.00;91.90;;;;;;5019634;28;20055;-75
2022/09/20 06:54:19;;;;;;;0.77;0.38;;;10.00;91.80;;;;;;5020498;28;20033;-73
2022/09/20 06:56:46;;;;;;;4.35;0.60;;;10.00;92.80;;;;;;5020177;28;20041;-73
2022/09/20 06:59:11;;;;;;;2.28;0.17;;;10.00;93.20;;;;;;5020584;28;20360;-73
2022/09/20 07:01:37;;;;;;;2.97;0.50;;;10.10;92.50;;;;;;5025869;28;20044;-74
2022/09/20 07:04:05;;;;;;;1.67;0.30;;;10.20;93.20;;;;;;5018741;28;20475;-74
2022/09/20 07:06:31;;;;;;;2.33;0.20;;;10.30;92.60;;;;;;5023385;28;20037;-73
2022/09/20 07:08:57;;;;;;;0.90;0.25;;;10.40;92.20;;;;;;5020934;28;20063;-73
2022/09/20 07:11:23;;;;;;;0.65;0.20;;;10.40;91.90;;;;;;5020958;28;20045;-73
2022/09/20 07:13:54;;;;;;;0.90;0.20;;;10.50;92.10;;;;;;5019855;28;20049;-73
2022/09/20 07:16:20;;;;;;;2.50;0.40;;;10.60;92.40;;;;;;5022941;28;20057;-74
2022/09/20 07:18:47;;;;;;;0.65;0.30;;;10.70;91.80;;;;;;5023207;28;20028;-74
2022/09/20 07:21:15;;;;;;;2.33;0.30;;;10.80;92.80;;;;;;5022873;28;20041;-74
2022/09/20 07:23:44;;;;;;;4.82;0.38;;;10.90;89.80;;;;;;5022918;28;20941;-74
2022/09/20 07:26:22;;;;;;;1.17;0.30;;;11.00;90.90;;;;;;5022929;28;20061;-74
2022/09/20 07:28:49;;;;;;;2.92;0.50;;;11.10;89.80;;;;;;5023884;28;20052;-73
2022/09/20 07:31:19;;;;;;;22.92;1.65;;;11.20;90.90;;;;;;5035687;28;20431;-73
2022/09/20 07:33:45;;;;;;;55.45;5.40;;;11.30;90.80;;;;;;5027192;28;20026;-73
2022/09/20 07:36:11;;;;;;;15.90;1.77;;;11.30;90.50;;;;;;5026501;28;20106;-73
2022/09/20 07:38:40;;;;;;;14.07;0.90;;;11.50;89.60;;;;;;5022478;28;20037;-74
2022/09/20 07:41:07;;;;;;;1.80;0.40;;;11.60;90.00;;;;;;5027468;28;20037;-74
2022/09/20 07:43:33;;;;;;;3.75;2.05;;;11.60;87.40;;;;;;5024754;28;20503;-74
2022/09/20 07:45:59;;;;;;;23.90;10.40;;;11.60;89.00;;;;;;5024277;28;20045;-74
2022/09/20 07:48:35;;;;;;;15.55;7.10;;;11.60;90.00;;;;;;5030323;28;20022;-73
2022/09/20 07:51:07;;;;;;;4.97;2.13;;;11.60;89.70;;;;;;5022107;28;20021;-74
2022/09/20 07:53:33;;;;;;;4.32;1.50;;;11.70;89.30;;;;;;5028586;28;20029;-74
2022/09/20 07:56:10;;;;;;;2.22;1.17;;;11.80;89.90;;;;;;5023722;28;20029;-74
2022/09/20 07:58:36;;;;;;;10.20;1.77;;;11.80;89.40;;;;;;5022386;28;20072;-74
2022/09/20 08:01:05;;;;;;;3.13;1.30;;;11.80;90.10;;;;;;5024121;28;20116;-74
2022/09/20 08:03:33;;;;;;;2.63;1.00;;;11.80;90.70;;;;;;5027632;28;20033;-73
2022/09/20 08:06:03;;;;;;;4.15;0.90;;;11.90;90.30;;;;;;5021424;28;20091;-73
2022/09/20 08:08:37;;;;;;;3.38;0.50;;;11.90;90.10;;;;;;5021679;28;20055;-74
2022/09/20 08:11:05;;;;;;;1.23;0.30;;;12.10;88.80;;;;;;5036930;28;20040;-74
2022/09/20 08:13:35;;;;;;;1.95;0.28;;;12.30;85.00;;;;;;5023060;28;20120;-76
2022/09/20 08:16:06;;;;;;;2.15;0.40;;;12.40;87.10;;;;;;5021406;28;20344;-74
2022/09/20 08:18:33;;;;;;;1.08;0.30;;;12.40;88.60;;;;;;5022995;28;20025;-74
2022/09/20 08:21:06;;;;;;;1.20;0.20;;;12.40;88.40;;;;;;5019864;28;20159;-75
2022/09/20 08:23:37;;;;;;;1.50;0.43;;;12.50;87.80;;;;;;5021702;28;20101;-75
2022/09/20 08:26:04;;;;;;;2.55;0.30;;;12.50;87.20;;;;;;5023781;28;20037;-76
2022/09/20 08:28:30;;;;;;;0.88;0.30;;;12.50;86.80;;;;;;5026149;28;20029;-75
2022/09/20 08:31:08;;;;;;;0.47;0.20;;;12.60;87.50;;;;;;5022784;28;20029;-75
2022/09/20 08:33:36;;;;;;;0.38;0.15;;;12.70;87.30;;;;;;5022844;28;20045;-73
2022/09/20 08:36:03;;;;;;;1.23;0.40;;;12.80;86.90;;;;;;5024509;28;20493;-73
2022/09/20 08:38:30;;;;;;;2.13;0.30;;;12.90;86.00;;;;;;5022943;28;20104;-75
2022/09/20 08:41:00;;;;;;;1.13;0.25;;;12.90;85.00;;;;;;5025575;28;20036;-75
2022/09/20 08:43:33;;;;;;;0.98;0.30;;;12.90;85.30;;;;;;5024959;28;20025;-75
2022/09/20 08:46:01;;;;;;;2.03;0.28;;;13.00;85.30;;;;;;5025742;28;20029;-76
2022/09/20 08:48:33;;;;;;;1.17;0.40;;;13.00;84.70;;;;;;5030075;28;20029;-74
2022/09/20 08:51:02;;;;;;;0.57;0.30;;;13.20;84.60;;;;;;5024059;28;20235;-75
2022/09/20 08:53:29;;;;;;;0.63;0.30;;;13.30;84.80;;;;;;5029667;28;20017;-75
2022/09/20 08:55:58;;;;;;;0.43;0.20;;;13.40;85.40;;;;;;5024923;28;21334;-75
2022/09/20 08:58:25;;;;;;;0.55;0.20;;;13.40;85.00;;;;;;5023820;28;20359;-75
2022/09/20 09:00:52;;;;;;;3.03;0.40;;;13.50;86.60;;;;;;5028359;28;20075;-75
2022/09/20 09:03:18;;;;;;;0.82;0.25;;;13.50;86.80;;;;;;5026464;28;20033;-76
2022/09/20 09:05:47;;;;;;;1.23;0.20;;;13.60;87.30;;;;;;5028734;28;20128;-75
2022/09/20 09:08:16;;;;;;;0.63;0.20;;;13.70;86.10;;;;;;5023007;28;20033;-76
2022/09/20 09:10:52;;;;;;;1.25;0.43;;;14.10;84.60;;;;;;5021962;28;20057;-76
2022/09/20 09:13:30;;;;;;;1.88;0.22;;;18.40;81.60;;;;;;5026614;28;20041;-76
2022/09/20 09:15:59;;;;;;;0.93;0.38;;;20.40;76.00;;;;;;5024297;28;20092;-76
2022/09/20 09:18:40;;;;;;;0.45;0.17;;;21.20;74.50;;;;;;5020754;28;21305;-76
2022/09/20 09:21:09;;;;;;;1.55;0.50;;;22.20;72.50;;;;;;5024567;28;20033;-76
2022/09/20 09:23:41;;;;;;;1.15;0.50;;;23.00;70.80;;;;;;5020014;28;20025;-76
2022/09/20 09:26:17;;;;;;;0.68;0.28;;;22.40;71.50;;;;;;5024428;28;20120;-76
2022/09/20 09:28:43;;;;;;;1.98;0.28;;;21.10;70.40;;;;;;5023103;28;20080;-76
2022/09/20 09:31:21;;;;;;;1.17;0.30;;;19.60;71.20;;;;;;5024282;28;20648;-77
2022/09/20 09:33:46;;;;;;;1.83;0.32;;;17.80;73.50;;;;;;5025199;28;20448;-76
2022/09/20 09:36:22;;;;;;;0.25;0.10;;;16.70;76.10;;;;;;5025109;28;20029;-76
2022/09/20 09:38:48;;;;;;;0.73;0.28;;;16.20;76.60;;;;;;5022601;28;20551;-76
2022/09/20 09:41:16;;;;;;;1.45;0.40;;;15.90;75.70;;;;;;5020926;28;20601;-76
2022/09/20 09:43:44;;;;;;;1.55;0.60;;;15.80;76.60;;;;;;5022263;28;20033;-76
2022/09/20 09:46:25;;;;;;;0.88;0.38;;;15.80;77.70;;;;;;5031846;28;20399;-76
2022/09/20 09:49:35;;;;;;;0.65;0.40;;;15.80;76.90;;;;;;5026735;28;20067;-76
2022/09/20 09:52:13;;;;;;;1.27;0.40;;;15.90;77.80;;;;;;5027412;28;20513;-77
2022/09/20 09:55:00;;;;;;;0.40;0.10;;;15.90;77.70;;;;;;5023569;28;20039;-76
2022/09/20 09:57:37;;;;;;;1.40;0.30;;;16.00;78.10;;;;;;5029668;28;20028;-76
2022/09/20 10:00:12;;;;;;;1.05;0.35;;;16.00;77.60;;;;;;5024341;28;20033;-76
2022/09/20 10:03:12;;;;;;;1.08;0.40;;;16.00;74.80;;;;;;5020267;28;20467;-77
2022/09/20 10:06:26;;;;;;;2.00;0.50;;;16.00;74.20;;;;;;5025426;28;20087;-76
2022/09/20 10:09:03;;;;;;;1.92;0.30;;;16.00;74.70;;;;;;5022609;28;20044;-76
2022/09/20 10:11:59;;;;;;;2.22;0.25;;;16.00;76.90;;;;;;5021698;28;20026;-76
2022/09/20 10:15:01;;;;;;;2.55;0.22;;;16.30;77.60;;;;;;5030447;28;20037;-77
2022/09/20 10:17:39;;;;;;;0.68;0.40;;;16.40;77.40;;;;;;5023408;28;20030;-76
2022/09/20 10:20:38;;;;;;;1.25;0.35;;;16.40;75.30;;;;;;5026075;28;20990;-76
2022/09/20 10:23:23;;;;;;;0.75;0.25;;;16.50;77.10;;;;;;5023630;28;20034;-76
2022/09/20 10:26:09;;;;;;;1.23;0.63;;;16.60;75.20;;;;;;5024420;28;20030;-76
2022/09/20 10:28:47;;;;;;;1.15;0.22;;;16.60;77.50;;;;;;5024076;28;20106;-76
2022/09/20 10:31:28;;;;;;;2.10;0.30;;;16.50;75.50;;;;;;5024169;28;20042;-76
2022/09/20 10:34:25;;;;;;;3.72;0.60;;;16.40;77.00;;;;;;5022569;28;20025;-76
2022/09/20 10:36:59;;;;;;;1.45;0.55;;;16.80;79.30;;;;;;5023964;28;20605;-76
2022/09/20 10:39:32;;;;;;;1.88;0.30;;;17.00;79.60;;;;;;5024507;28;20033;-76
2022/09/20 10:45:25;;;;;;;4.25;0.40;;;17.30;76.30;;;;;;5031256;28;20052;-77
2022/09/20 10:47:57;;;;;;;0.57;0.17;;;17.30;76.10;;;;;;5024276;28;20099;-77
2022/09/20 10:50:51;;;;;;;0.93;0.25;;;17.40;78.60;;;;;;5025472;28;20029;-76
2022/09/20 10:53:51;;;;;;;0.40;0.20;;;17.70;76.90;;;;;;5027977;28;20499;-76
2022/09/20 10:56:34;;;;;;;0.65;0.30;;;17.70;78.20;;;;;;5027508;28;20033;-76
2022/09/20 10:59:18;;;;;;;0.90;0.28;;;17.50;73.60;;;;;;5027227;28;20476;-76
2022/09/20 11:02:08;;;;;;;0.73;0.27;;;17.50;74.90;;;;;;5029849;28;20072;-76
2022/09/20 11:04:39;;;;;;;0.88;0.22;;;17.60;74.50;;;;;;5030888;28;20919;-76
2022/09/20 11:07:42;;;;;;;2.13;0.50;;;17.50;73.90;;;;;;5026164;28;20355;-79
2022/09/20 11:10:27;;;;;;;0.45;0.25;;;17.70;78.80;;;;;;5026328;28;20095;-77
2022/09/20 11:13:05;;;;;;;3.50;0.70;;;17.90;74.10;;;;;;5025807;28;20132;-76
2022/09/20 11:15:45;;;;;;;0.30;0.10;;;18.10;75.00;;;;;;5037890;28;20368;-77
2022/09/20 11:18:22;;;;;;;0.88;0.35;;;18.30;75.30;;;;;;5027086;28;20029;-77
2022/09/20 11:21:16;;;;;;;3.45;0.60;;;18.50;74.80;;;;;;5026017;28;20056;-76
2022/09/20 11:24:02;;;;;;;0.98;0.20;;;18.70;76.60;;;;;;5025594;28;20037;-76
2022/09/20 11:26:30;;;;;;;;;;;18.50;73.50;;;;;;5027432;28;20055;-77
2022/09/20 11:29:16;;;;;;;0.70;0.20;;;18.50;75.10;;;;;;5028384;28;19908;-76
2022/09/20 11:31:44;;;;;;;1.38;0.30;;;18.80;73.90;;;;;;5032672;28;20041;-76
2022/09/20 11:34:28;;;;;;;1.10;0.30;;;18.90;74.00;;;;;;5024127;28;25688;-76
2022/09/20 11:37:01;;;;;;;1.45;0.47;;;19.00;72.80;;;;;;5033236;28;20033;-77
2022/09/20 11:39:39;;;;;;;0.45;0.20;;;18.80;71.80;;;;;;5026618;28;20475;-76
2022/09/20 11:42:12;;;;;;;1.55;0.40;;;18.60;73.70;;;;;;5031914;28;20029;-76
2022/09/20 11:44:40;;;;;;;0.57;0.20;;;18.80;75.20;;;;;;5030886;28;20472;-76
2022/09/20 11:47:15;;;;;;;0.40;0.20;;;18.80;72.20;;;;;;5027180;28;20052;-76
2022/09/20 11:49:56;;;;;;;2.60;0.57;;;18.80;71.30;;;;;;5026381;28;20088;-76
2022/09/20 11:52:43;;;;;;;3.45;0.50;;;18.90;72.70;;;;;;5025128;28;20107;-76
2022/09/20 11:55:40;;;;;;;2.60;0.43;;;19.20;74.50;;;;;;5025354;28;20033;-76
2022/09/20 11:58:10;;;;;;;2.20;0.40;;;19.60;73.50;;;;;;5030001;28;20029;-76
2022/09/20 12:00:40;;;;;;;4.95;0.65;;;19.60;73.70;;;;;;5025566;28;20344;-77
2022/09/20 12:03:26;;;;;;;2.60;0.50;;;19.70;74.70;;;;;;5025890;28;20037;-76
2022/09/20 12:05:57;;;;;;;0.70;0.25;;;19.50;72.80;;;;;;5026561;28;20533;-76
2022/09/20 12:08:41;;;;;;;0.55;0.20;;;19.60;71.90;;;;;;5037856;28;20473;-76
2022/09/20 12:11:13;;;;;;;1.55;0.47;;;19.60;72.90;;;;;;5025612;28;20448;-77
2022/09/20 12:13:41;;;;;;;0.82;0.28;;;19.90;75.00;;;;;;5025171;28;20103;-76
2022/09/20 12:16:07;;;;;;;1.23;0.50;;;20.00;73.00;;;;;;5033107;28;20063;-77
2022/09/20 12:18:33;;;;;;;0.88;0.30;;;20.10;72.70;;;;;;5027780;28;20053;-76
2022/09/20 12:20:59;;;;;;;1.17;0.20;;;20.10;73.20;;;;;;5029960;28;20056;-76
2022/09/20 12:26:06;;;;;;;2.40;0.47;;;19.90;72.00;;;;;;5038098;28;20146;-76
2022/09/20 12:28:33;;;;;;;0.43;0.15;;;20.10;75.40;;;;;;5028582;28;20030;-77
2022/09/20 12:31:17;;;;;;;0.52;0.30;;;20.10;73.30;;;;;;5035558;28;20380;-76
2022/09/20 12:34:03;;;;;;;3.28;0.30;;;19.90;71.30;;;;;;5025738;28;20118;-76
2022/09/20 12:36:35;;;;;;;0.52;0.20;;;19.60;73.50;;;;;;5030075;28;20036;-76
2022/09/20 12:39:12;;;;;;;0.65;0.22;;;19.50;73.10;;;;;;5025428;28;20029;-76
2022/09/20 12:41:52;;;;;;;0.60;0.25;;;19.80;72.30;;;;;;5026161;28;20025;-76
2022/09/20 12:44:36;;;;;;;3.35;0.50;;;20.20;75.50;;;;;;5025404;28;20040;-76
2022/09/20 12:47:05;;;;;;;1.48;0.57;;;20.10;71.60;;;;;;5024507;28;20048;-76
2022/09/20 12:52:49;;;;;;;0.55;0.22;;;20.20;72.70;;;;;;5026685;28;20056;-76
2022/09/20 12:55:41;;;;;;;1.27;0.80;;;20.20;73.00;;;;;;5024071;28;20108;-76
2022/09/20 12:58:15;;;;;;;1.55;0.60;;;20.40;75.10;;;;;;5027836;28;20406;-76
2022/09/20 13:00:46;;;;;;;2.63;0.30;;;20.40;74.70;;;;;;5027557;28;20028;-76
2022/09/20 13:03:22;;;;;;;1.52;0.20;;;20.30;75.00;;;;;;5024571;28;20030;-76
2022/09/20 13:05:51;;;;;;;0.85;0.20;;;20.60;75.50;;;;;;5024893;28;20208;-77
2022/09/20 13:08:26;;;;;;;2.65;0.45;;;20.90;76.80;;;;;;5031813;28;20480;-77
2022/09/20 13:11:16;;;;;;;1.20;0.50;;;20.90;76.90;;;;;;5024238;28;20029;-76
2022/09/20 13:13:45;;;;;;;2.15;0.52;;;20.70;76.00;;;;;;5026871;28;20045;-76
2022/09/20 13:16:35;;;;;;;1.45;0.30;;;20.90;77.20;;;;;;5023958;28;20826;-77
2022/09/20 13:19:27;;;;;;;2.33;0.32;;;20.50;74.00;;;;;;5027980;28;20068;-76
2022/09/20 13:22:08;;;;;;;0.95;0.40;;;20.20;75.40;;;;;;5024423;28;20021;-76
2022/09/20 13:24:40;;;;;;;5.40;0.50;;;20.60;76.70;;;;;;5023915;28;20041;-76
2022/09/20 13:27:12;;;;;;;1.85;0.45;;;20.90;78.30;;;;;;5023422;28;20041;-76
2022/09/20 13:29:43;;;;;;;1.10;0.50;;;20.90;77.80;;;;;;5023518;28;20032;-76
2022/09/20 13:32:31;;;;;;;1.60;0.57;;;21.10;79.30;;;;;;5025249;28;20036;-76
2022/09/20 13:35:05;;;;;;;0.90;0.30;;;21.40;79.50;;;;;;5022991;28;20747;-76
2022/09/20 13:37:32;;;;;;;2.15;0.85;;;21.40;75.90;;;;;;5038032;28;20120;-76
2022/09/20 13:39:58;;;;;;;0.70;0.30;;;21.30;76.60;;;;;;5025243;28;20036;-76
2022/09/20 13:42:28;;;;;;;1.08;0.38;;;21.40;76.20;;;;;;5027904;28;20025;-76
2022/09/20 13:44:56;;;;;;;1.55;0.50;;;21.60;78.10;;;;;;5025242;28;20109;-77
2022/09/20 13:47:30;;;;;;;4.10;1.00;;;21.60;77.90;;;;;;5024818;28;20048;-76
2022/09/20 13:50:09;;;;;;;;;;;21.50;76.80;;;;;;5024699;28;20075;-76
2022/09/20 13:52:45;;;;;;;2.50;0.40;;;21.60;76.60;;;;;;5026580;28;19959;-76
2022/09/20 13:55:34;;;;;;;1.02;0.50;;;21.40;77.50;;;;;;5023782;28;20075;-76
2022/09/20 13:58:08;;;;;;;2.95;0.50;;;21.40;76.60;;;;;;5024258;28;20025;-77
2022/09/20 14:00:36;;;;;;;1.80;0.60;;;21.40;74.90;;;;;;5031105;28;20025;-76